sensor_id;sensor_type;location;lat;lon;timestamp;pressure;altitude;pressure_sealevel;temperature;humidity
74798;BME280;63326;45.088;7.658;2023-11-18T00:00:38;99175.41;;;2.28;97.09
74798;BME280;63326;45.088;7.658;2023-11-18T00:03:05;99196.72;;;2.15;98.13
74798;BME280;63326;45.088;7.658;2023-11-18T00:05:32;99209.13;;;2.04;99.21
74798;BME280;63326;45.088;7.658;2023-11-18T00:07:59;99153.88;;;1.54;100.00
74798;BME280;63326;45.088;7.658;2023-11-18T00:10:26;99213.72;;;2.02;100.00
74798;BME280;63326;45.088;7.658;2023-11-18T00:12:53;99209.50;;;1.99;100.00
74798;BME280;63326;45.088;7.658;2023-11-18T00:15:20;99203.81;;;2.04;100.00
74798;BME280;63326;45.088;7.658;2023-11-18T00:17:47;99216.94;;;1.94;100.00
74798;BME280;63326;45.088;7.658;2023-11-18T00:20:13;99238.50;;;1.89;100.00
74798;BME280;63326;45.088;7.658;2023-11-18T00:22:42;99212.84;;;1.68;100.00
74798;BME280;63326;45.088;7.658;2023-11-18T00:25:09;99223.66;;;1.65;100.00
74798;BME280;63326;45.088;7.658;2023-11-18T00:27:37;99218.16;;;1.79;100.00
74798;BME280;63326;45.088;7.658;2023-11-18T00:30:04;99267.00;;;1.86;100.00
74798;BME280;63326;45.088;7.658;2023-11-18T00:32:31;99196.94;;;1.45;100.00
74798;BME280;63326;45.088;7.658;2023-11-18T00:34:59;99226.06;;;1.45;100.00
74798;BME280;63326;45.088;7.658;2023-11-18T00:37:27;99197.63;;;1.25;100.00
74798;BME280;63326;45.088;7.658;2023-11-18T00:39:54;99195.47;;;1.30;100.00
74798;BME280;63326;45.088;7.658;2023-11-18T00:42:20;99198.81;;;1.32;100.00
74798;BME280;63326;45.088;7.658;2023-11-18T00:44:47;99221.25;;;1.50;100.00
74798;BME280;63326;45.088;7.658;2023-11-18T00:47:14;99218.00;;;1.58;100.00
74798;BME280;63326;45.088;7.658;2023-11-18T00:49:41;99181.00;;;1.23;100.00
74798;BME280;63326;45.088;7.658;2023-11-18T00:52:08;99230.75;;;1.53;100.00
74798;BME280;63326;45.088;7.658;2023-11-18T00:54:35;99246.63;;;1.53;100.00
74798;BME280;63326;45.088;7.658;2023-11-18T00:57:02;99186.22;;;1.00;100.00
74798;BME280;63326;45.088;7.658;2023-11-18T00:59:29;99204.25;;;0.95;100.00
74798;BME280;63326;45.088;7.658;2023-11-18T01:01:56;99249.63;;;1.13;100.00
74798;BME280;63326;45.088;7.658;2023-11-18T01:04:24;99222.81;;;1.07;100.00
74798;BME280;63326;45.088;7.658;2023-11-18T01:06:52;99252.47;;;1.34;100.00
74798;BME280;63326;45.088;7.658;2023-11-18T01:09:18;99252.97;;;1.39;100.00
74798;BME280;63326;45.088;7.658;2023-11-18T01:11:46;99238.44;;;1.10;100.00
74798;BME280;63326;45.088;7.658;2023-11-18T01:14:32;99238.84;;;0.92;100.00
74798;BME280;63326;45.088;7.658;2023-11-18T01:16:59;99216.34;;;0.63;100.00
74798;BME280;63326;45.088;7.658;2023-11-18T01:19:26;99239.94;;;0.66;100.00
74798;BME280;63326;45.088;7.658;2023-11-18T01:21:53;99181.63;;;0.56;100.00
74798;BME280;63326;45.088;7.658;2023-11-18T01:24:19;99200.56;;;0.74;100.00
74798;BME280;63326;45.088;7.658;2023-11-18T01:26:46;99257.47;;;1.15;100.00
74798;BME280;63326;45.088;7.658;2023-11-18T01:29:13;99238.28;;;1.00;100.00
74798;BME280;63326;45.088;7.658;2023-11-18T01:31:40;99261.88;;;0.79;100.00
74798;BME280;63326;45.088;7.658;2023-11-18T01:34:19;99226.47;;;0.45;100.00
74798;BME280;63326;45.088;7.658;2023-11-18T01:36:49;99266.78;;;0.60;100.00
74798;BME280;63326;45.088;7.658;2023-11-18T01:39:17;99278.38;;;0.46;100.00
74798;BME280;63326;45.088;7.658;2023-11-18T01:41:45;99233.41;;;0.09;100.00
74798;BME280;63326;45.088;7.658;2023-11-18T01:44:12;99274.59;;;0.12;100.00
74798;BME280;63326;45.088;7.658;2023-11-18T01:46:42;99281.69;;;0.24;100.00
74798;BME280;63326;45.088;7.658;2023-11-18T01:49:13;99265.22;;;0.08;100.00
74798;BME280;63326;45.088;7.658;2023-11-18T01:51:42;99289.19;;;0.18;100.00
74798;BME280;63326;45.088;7.658;2023-11-18T01:54:12;99273.34;;;0.18;100.00
74798;BME280;63326;45.088;7.658;2023-11-18T01:56:46;99245.91;;;-0.05;100.00
74798;BME280;63326;45.088;7.658;2023-11-18T01:59:13;99279.25;;;0.21;100.00
74798;BME280;63326;45.088;7.658;2023-11-18T02:01:49;99253.59;;;0.10;100.00
74798;BME280;63326;45.088;7.658;2023-11-18T02:04:17;99259.94;;;0.08;100.00
74798;BME280;63326;45.088;7.658;2023-11-18T02:06:48;99292.56;;;0.07;100.00
74798;BME280;63326;45.088;7.658;2023-11-18T02:09:16;99276.03;;;-0.08;100.00
74798;BME280;63326;45.088;7.658;2023-11-18T02:12:04;99299.13;;;0.14;100.00
74798;BME280;63326;45.088;7.658;2023-11-18T02:14:39;99302.06;;;0.22;100.00
74798;BME280;63326;45.088;7.658;2023-11-18T02:17:07;99295.81;;;0.36;100.00
74798;BME280;63326;45.088;7.658;2023-11-18T02:19:36;99287.75;;;0.50;100.00
74798;BME280;63326;45.088;7.658;2023-11-18T02:22:06;99280.19;;;0.69;100.00
74798;BME280;63326;45.088;7.658;2023-11-18T02:24:34;99285.00;;;0.88;100.00
74798;BME280;63326;45.088;7.658;2023-11-18T02:27:05;99278.50;;;0.68;100.00
74798;BME280;63326;45.088;7.658;2023-11-18T02:29:34;99277.28;;;0.85;100.00
74798;BME280;63326;45.088;7.658;2023-11-18T02:35:01;99292.56;;;0.93;99.40
74798;BME280;63326;45.088;7.658;2023-11-18T02:37:32;99284.38;;;0.85;97.78
74798;BME280;63326;45.088;7.658;2023-11-18T02:40:04;99296.53;;;0.87;98.75
74798;BME280;63326;45.088;7.658;2023-11-18T02:42:38;99259.44;;;0.39;100.00
74798;BME280;63326;45.088;7.658;2023-11-18T02:45:07;99280.34;;;0.42;100.00
74798;BME280;63326;45.088;7.658;2023-11-18T02:47:35;99279.44;;;0.31;100.00
74798;BME280;63326;45.088;7.658;2023-11-18T02:50:02;99304.34;;;0.52;100.00
74798;BME280;63326;45.088;7.658;2023-11-18T02:52:32;99293.72;;;0.28;100.00
74798;BME280;63326;45.088;7.658;2023-11-18T02:55:02;99282.44;;;0.01;100.00
74798;BME280;63326;45.088;7.658;2023-11-18T02:57:29;99286.03;;;-0.13;100.00
74798;BME280;63326;45.088;7.658;2023-11-18T02:59:56;99297.84;;;-0.19;100.00
74798;BME280;63326;45.088;7.658;2023-11-18T03:02:22;99254.78;;;-0.45;100.00
74798;BME280;63326;45.088;7.658;2023-11-18T03:04:49;99265.66;;;-0.36;100.00
74798;BME280;63326;45.088;7.658;2023-11-18T03:07:16;99275.16;;;-0.21;100.00
74798;BME280;63326;45.088;7.658;2023-11-18T03:09:43;99294.16;;;0.09;100.00
74798;BME280;63326;45.088;7.658;2023-11-18T03:12:09;99245.16;;;-0.20;100.00
74798;BME280;63326;45.088;7.658;2023-11-18T03:14:36;99289.00;;;-0.05;100.00
74798;BME280;63326;45.088;7.658;2023-11-18T03:17:03;99260.69;;;-0.41;100.00
74798;BME280;63326;45.088;7.658;2023-11-18T03:19:33;99260.78;;;-0.55;100.00
74798;BME280;63326;45.088;7.658;2023-11-18T03:22:01;99301.16;;;-0.28;100.00
74798;BME280;63326;45.088;7.658;2023-11-18T03:24:29;99275.44;;;-0.51;100.00
74798;BME280;63326;45.088;7.658;2023-11-18T03:26:55;99250.97;;;-0.66;100.00
74798;BME280;63326;45.088;7.658;2023-11-18T03:29:22;99238.91;;;-0.83;100.00
74798;BME280;63326;45.088;7.658;2023-11-18T03:31:49;99318.78;;;-0.28;100.00
74798;BME280;63326;45.088;7.658;2023-11-18T03:34:16;99299.22;;;-0.38;100.00
74798;BME280;63326;45.088;7.658;2023-11-18T03:36:46;99296.88;;;-0.43;100.00
74798;BME280;63326;45.088;7.658;2023-11-18T03:39:13;99274.53;;;-0.37;100.00
74798;BME280;63326;45.088;7.658;2023-11-18T03:41:41;99308.94;;;-0.01;100.00
74798;BME280;63326;45.088;7.658;2023-11-18T03:44:13;99194.94;;;-0.57;100.00
74798;BME280;63326;45.088;7.658;2023-11-18T03:46:40;99251.50;;;-0.23;100.00
74798;BME280;63326;45.088;7.658;2023-11-18T03:49:07;99279.59;;;-0.22;100.00
74798;BME280;63326;45.088;7.658;2023-11-18T03:51:34;99249.78;;;-0.49;100.00
74798;BME280;63326;45.088;7.658;2023-11-18T03:54:00;99299.94;;;-0.49;100.00
74798;BME280;63326;45.088;7.658;2023-11-18T03:56:27;99271.28;;;-0.81;100.00
74798;BME280;63326;45.088;7.658;2023-11-18T03:58:55;99321.34;;;-0.54;100.00
74798;BME280;63326;45.088;7.658;2023-11-18T04:01:25;99265.88;;;-0.92;100.00
74798;BME280;63326;45.088;7.658;2023-11-18T04:03:55;99327.13;;;-0.61;100.00
74798;BME280;63326;45.088;7.658;2023-11-18T04:06:22;99251.59;;;-1.02;100.00
74798;BME280;63326;45.088;7.658;2023-11-18T04:08:50;99245.91;;;-1.09;100.00
74798;BME280;63326;45.088;7.658;2023-11-18T04:11:17;99325.56;;;-0.64;100.00
74798;BME280;63326;45.088;7.658;2023-11-18T04:13:44;99323.16;;;-0.54;100.00
74798;BME280;63326;45.088;7.658;2023-11-18T04:16:12;99341.63;;;-0.54;100.00
74798;BME280;63326;45.088;7.658;2023-11-18T04:18:39;99352.47;;;-0.59;100.00
74798;BME280;63326;45.088;7.658;2023-11-18T04:21:10;99343.28;;;-0.66;100.00
74798;BME280;63326;45.088;7.658;2023-11-18T04:23:37;99352.47;;;-0.59;100.00
74798;BME280;63326;45.088;7.658;2023-11-18T04:26:05;99351.59;;;-0.59;100.00
74798;BME280;63326;45.088;7.658;2023-11-18T04:28:32;99262.47;;;-1.07;100.00
74798;BME280;63326;45.088;7.658;2023-11-18T04:30:59;99326.59;;;-0.66;100.00
74798;BME280;63326;45.088;7.658;2023-11-18T04:33:26;99320.59;;;-0.68;100.00
74798;BME280;63326;45.088;7.658;2023-11-18T04:35:53;99310.53;;;-0.76;100.00
74798;BME280;63326;45.088;7.658;2023-11-18T04:38:19;99267.63;;;-1.05;100.00
74798;BME280;63326;45.088;7.658;2023-11-18T04:40:46;99287.28;;;-0.96;100.00
74798;BME280;63326;45.088;7.658;2023-11-18T04:43:13;99349.31;;;-0.51;100.00
74798;BME280;63326;45.088;7.658;2023-11-18T04:45:40;99308.53;;;-0.73;100.00
74798;BME280;63326;45.088;7.658;2023-11-18T04:48:07;99294.06;;;-0.80;100.00
74798;BME280;63326;45.088;7.658;2023-11-18T04:50:34;99296.19;;;-0.72;100.00
74798;BME280;63326;45.088;7.658;2023-11-18T04:53:01;99285.50;;;-0.44;100.00
74798;BME280;63326;45.088;7.658;2023-11-18T04:55:30;99332.31;;;-0.07;100.00
74798;BME280;63326;45.088;7.658;2023-11-18T04:57:57;99327.53;;;-0.15;100.00
74798;BME280;63326;45.088;7.658;2023-11-18T05:00:24;99308.84;;;-0.37;100.00
74798;BME280;63326;45.088;7.658;2023-11-18T05:02:51;99309.28;;;-0.71;100.00
74798;BME280;63326;45.088;7.658;2023-11-18T05:05:18;99345.81;;;-0.64;100.00
74798;BME280;63326;45.088;7.658;2023-11-18T05:07:44;99311.69;;;-1.07;100.00
74798;BME280;63326;45.088;7.658;2023-11-18T05:10:11;99346.38;;;-0.86;100.00
74798;BME280;63326;45.088;7.658;2023-11-18T05:12:38;99287.75;;;-1.04;100.00
74798;BME280;63326;45.088;7.658;2023-11-18T05:15:07;99353.63;;;-0.63;100.00
74798;BME280;63326;45.088;7.658;2023-11-18T05:17:36;99354.25;;;-0.59;100.00
74798;BME280;63326;45.088;7.658;2023-11-18T05:20:04;99358.69;;;-0.60;100.00
74798;BME280;63326;45.088;7.658;2023-11-18T05:22:31;99305.63;;;-0.95;100.00
74798;BME280;63326;45.088;7.658;2023-11-18T05:24:58;99332.53;;;-0.50;100.00
74798;BME280;63326;45.088;7.658;2023-11-18T05:27:24;99340.91;;;-0.44;100.00
74798;BME280;63326;45.088;7.658;2023-11-18T05:29:53;99359.38;;;-0.31;100.00
74798;BME280;63326;45.088;7.658;2023-11-18T05:32:29;99354.56;;;-0.24;100.00
74798;BME280;63326;45.088;7.658;2023-11-18T05:34:56;99326.78;;;-0.69;100.00
74798;BME280;63326;45.088;7.658;2023-11-18T05:37:24;99360.81;;;-0.52;100.00
74798;BME280;63326;45.088;7.658;2023-11-18T05:39:51;99346.34;;;-0.59;100.00
74798;BME280;63326;45.088;7.658;2023-11-18T05:42:26;99347.03;;;-0.43;100.00
74798;BME280;63326;45.088;7.658;2023-11-18T05:44:56;99321.81;;;-0.47;100.00
74798;BME280;63326;45.088;7.658;2023-11-18T05:47:26;99314.06;;;-0.50;100.00
74798;BME280;63326;45.088;7.658;2023-11-18T05:49:54;99295.59;;;-0.50;100.00
74798;BME280;63326;45.088;7.658;2023-11-18T05:52:22;99367.53;;;-0.08;100.00
74798;BME280;63326;45.088;7.658;2023-11-18T05:54:48;99317.53;;;-0.50;100.00
74798;BME280;63326;45.088;7.658;2023-11-18T05:57:15;99369.75;;;-0.28;100.00
74798;BME280;63326;45.088;7.658;2023-11-18T05:59:43;99330.84;;;-0.51;100.00
74798;BME280;63326;45.088;7.658;2023-11-18T06:02:10;99355.66;;;-0.41;100.00
74798;BME280;63326;45.088;7.658;2023-11-18T06:04:45;99359.94;;;-0.65;100.00
74798;BME280;63326;45.088;7.658;2023-11-18T06:07:12;99366.44;;;-0.71;100.00
74798;BME280;63326;45.088;7.658;2023-11-18T06:09:40;99381.72;;;-0.49;100.00
74798;BME280;63326;45.088;7.658;2023-11-18T06:12:08;99336.31;;;-0.94;100.00
74798;BME280;63326;45.088;7.658;2023-11-18T06:14:40;99384.53;;;-0.65;100.00
74798;BME280;63326;45.088;7.658;2023-11-18T06:17:08;99380.47;;;-0.71;100.00
74798;BME280;63326;45.088;7.658;2023-11-18T06:19:35;99351.38;;;-0.96;100.00
74798;BME280;63326;45.088;7.658;2023-11-18T06:22:02;99372.47;;;-0.96;100.00
74798;BME280;63326;45.088;7.658;2023-11-18T06:24:29;99370.31;;;-1.04;100.00
74798;BME280;63326;45.088;7.658;2023-11-18T06:26:55;99392.56;;;-0.81;100.00
74798;BME280;63326;45.088;7.658;2023-11-18T06:29:22;99386.13;;;-0.89;100.00
74798;BME280;63326;45.088;7.658;2023-11-18T06:31:50;99399.84;;;-0.84;100.00
74798;BME280;63326;45.088;7.658;2023-11-18T06:34:16;99381.53;;;-1.00;100.00
74798;BME280;63326;45.088;7.658;2023-11-18T06:36:44;99371.38;;;-1.06;100.00
74798;BME280;63326;45.088;7.658;2023-11-18T06:39:11;99379.66;;;-0.98;100.00
74798;BME280;63326;45.088;7.658;2023-11-18T06:41:39;99388.94;;;-0.92;100.00
74798;BME280;63326;45.088;7.658;2023-11-18T06:44:15;99411.97;;;-0.67;100.00
74798;BME280;63326;45.088;7.658;2023-11-18T06:46:44;99410.41;;;-0.57;100.00
74798;BME280;63326;45.088;7.658;2023-11-18T06:49:11;99362.03;;;-0.71;100.00
74798;BME280;63326;45.088;7.658;2023-11-18T06:51:42;99392.63;;;-0.41;100.00
74798;BME280;63326;45.088;7.658;2023-11-18T06:54:09;99400.06;;;-0.21;100.00
74798;BME280;63326;45.088;7.658;2023-11-18T06:56:41;99395.22;;;-0.14;100.00
74798;BME280;63326;45.088;7.658;2023-11-18T06:59:12;99432.88;;;0.28;100.00
74798;BME280;63326;45.088;7.658;2023-11-18T07:01:41;99347.06;;;0.08;100.00
74798;BME280;63326;45.088;7.658;2023-11-18T07:04:11;99400.19;;;0.80;100.00
74798;BME280;63326;45.088;7.658;2023-11-18T07:06:37;99392.31;;;0.91;99.12
74798;BME280;63326;45.088;7.658;2023-11-18T07:09:08;99409.53;;;1.33;97.65
74798;BME280;63326;45.088;7.658;2023-11-18T07:11:40;99385.88;;;2.02;92.67
74798;BME280;63326;45.088;7.658;2023-11-18T07:14:11;99345.56;;;2.76;85.86
74798;BME280;63326;45.088;7.658;2023-11-18T07:16:39;99432.31;;;3.53;82.34
74798;BME280;63326;45.088;7.658;2023-11-18T07:19:10;99422.88;;;3.49;81.62
74798;BME280;63326;45.088;7.658;2023-11-18T07:21:41;99422.44;;;3.32;82.88
74798;BME280;63326;45.088;7.658;2023-11-18T07:24:08;99429.88;;;4.14;79.62
74798;BME280;63326;45.088;7.658;2023-11-18T07:26:35;99390.63;;;5.09;72.04
74798;BME280;63326;45.088;7.658;2023-11-18T07:29:02;99406.41;;;6.47;66.15
74798;BME280;63326;45.088;7.658;2023-11-18T07:31:28;99431.78;;;7.81;60.77
74798;BME280;63326;45.088;7.658;2023-11-18T07:33:55;99446.44;;;8.74;57.48
74798;BME280;63326;45.088;7.658;2023-11-18T07:36:23;99407.97;;;9.43;53.65
74798;BME280;63326;45.088;7.658;2023-11-18T07:38:49;99426.03;;;10.08;50.24
74798;BME280;63326;45.088;7.658;2023-11-18T07:41:19;99395.84;;;11.10;46.35
74798;BME280;63326;45.088;7.658;2023-11-18T07:43:57;99426.84;;;11.37;46.39
74798;BME280;63326;45.088;7.658;2023-11-18T07:46:24;99425.66;;;12.24;43.54
74798;BME280;63326;45.088;7.658;2023-11-18T07:48:52;99464.25;;;12.77;43.89
74798;BME280;63326;45.088;7.658;2023-11-18T07:51:20;99440.94;;;12.99;41.80
74798;BME280;63326;45.088;7.658;2023-11-18T07:53:48;99455.44;;;14.08;40.10
74798;BME280;63326;45.088;7.658;2023-11-18T07:56:15;99440.22;;;14.65;38.44
74798;BME280;63326;45.088;7.658;2023-11-18T07:58:43;99453.13;;;15.32;37.09
74798;BME280;63326;45.088;7.658;2023-11-18T08:01:13;99429.78;;;15.65;36.31
74798;BME280;63326;45.088;7.658;2023-11-18T08:03:42;99412.28;;;15.20;37.22
74798;BME280;63326;45.088;7.658;2023-11-18T08:06:11;99422.91;;;16.77;34.04
74798;BME280;63326;45.088;7.658;2023-11-18T08:08:38;99456.06;;;17.12;33.54
74798;BME280;63326;45.088;7.658;2023-11-18T08:11:06;99437.09;;;16.92;33.47
74798;BME280;63326;45.088;7.658;2023-11-18T08:13:33;99466.06;;;17.31;32.92
74798;BME280;63326;45.088;7.658;2023-11-18T08:16:00;99415.16;;;17.13;32.93
74798;BME280;63326;45.088;7.658;2023-11-18T08:18:28;99426.78;;;17.40;32.92
74798;BME280;63326;45.088;7.658;2023-11-18T08:20:57;99422.50;;;17.00;33.27
74798;BME280;63326;45.088;7.658;2023-11-18T08:23:27;99450.81;;;17.95;32.44
74798;BME280;63326;45.088;7.658;2023-11-18T08:25:55;99464.31;;;18.08;32.25
74798;BME280;63326;45.088;7.658;2023-11-18T08:28:22;99432.22;;;18.55;31.49
74798;BME280;63326;45.088;7.658;2023-11-18T08:30:49;99431.34;;;18.61;31.18
74798;BME280;63326;45.088;7.658;2023-11-18T08:33:19;99445.72;;;19.36;30.78
74798;BME280;63326;45.088;7.658;2023-11-18T08:35:46;99423.91;;;19.91;29.29
74798;BME280;63326;45.088;7.658;2023-11-18T08:38:13;99435.38;;;20.53;28.61
74798;BME280;63326;45.088;7.658;2023-11-18T08:40:40;99415.72;;;20.75;27.11
74798;BME280;63326;45.088;7.658;2023-11-18T08:43:07;99463.44;;;20.72;27.51
74798;BME280;63326;45.088;7.658;2023-11-18T08:45:34;99468.97;;;21.31;26.50
74798;BME280;63326;45.088;7.658;2023-11-18T08:48:03;99465.22;;;20.78;27.01
74798;BME280;63326;45.088;7.658;2023-11-18T08:50:37;99467.97;;;19.88;27.97
74798;BME280;63326;45.088;7.658;2023-11-18T08:53:06;99469.34;;;19.97;28.43
74798;BME280;63326;45.088;7.658;2023-11-18T08:55:37;99461.81;;;21.06;27.27
74798;BME280;63326;45.088;7.658;2023-11-18T08:58:11;99437.09;;;21.60;25.68
74798;BME280;63326;45.088;7.658;2023-11-18T09:01:00;99462.69;;;21.07;25.97
74798;BME280;63326;45.088;7.658;2023-11-18T09:03:40;99478.78;;;21.55;25.59
74798;BME280;63326;45.088;7.658;2023-11-18T09:06:15;99443.56;;;21.82;24.97
74798;BME280;63326;45.088;7.658;2023-11-18T09:08:47;99448.31;;;20.46;26.80
74798;BME280;63326;45.088;7.658;2023-11-18T09:11:21;99467.94;;;20.67;27.21
74798;BME280;63326;45.088;7.658;2023-11-18T09:13:50;99471.56;;;21.49;25.57
74798;BME280;63326;45.088;7.658;2023-11-18T09:16:21;99452.91;;;22.26;23.16
74798;BME280;63326;45.088;7.658;2023-11-18T09:18:49;99444.56;;;21.53;23.84
74798;BME280;63326;45.088;7.658;2023-11-18T09:21:16;99437.72;;;21.27;24.42
74798;BME280;63326;45.088;7.658;2023-11-18T09:23:45;99457.31;;;21.35;24.48
74798;BME280;63326;45.088;7.658;2023-11-18T09:26:14;99454.66;;;21.05;24.87
74798;BME280;63326;45.088;7.658;2023-11-18T09:28:43;99455.56;;;20.52;25.96
74798;BME280;63326;45.088;7.658;2023-11-18T09:31:13;99469.66;;;21.14;25.06
74798;BME280;63326;45.088;7.658;2023-11-18T09:33:41;99460.53;;;21.32;24.08
74798;BME280;63326;45.088;7.658;2023-11-18T09:36:18;99426.03;;;19.89;25.94
74798;BME280;63326;45.088;7.658;2023-11-18T09:38:46;99443.81;;;20.52;25.44
74798;BME280;63326;45.088;7.658;2023-11-18T09:41:22;99456.16;;;20.24;26.06
74798;BME280;63326;45.088;7.658;2023-11-18T09:43:51;99449.03;;;20.23;26.00
74798;BME280;63326;45.088;7.658;2023-11-18T09:46:26;99410.47;;;19.60;26.09
74798;BME280;63326;45.088;7.658;2023-11-18T09:51:45;99441.06;;;19.00;27.42
74798;BME280;63326;45.088;7.658;2023-11-18T09:54:29;99457.97;;;19.27;26.87
74798;BME280;63326;45.088;7.658;2023-11-18T09:57:04;99481.38;;;19.10;27.14
74798;BME280;63326;45.088;7.658;2023-11-18T10:00:03;99475.19;;;19.21;26.66
74798;BME280;63326;45.088;7.658;2023-11-18T10:02:48;99441.66;;;18.84;27.02
74798;BME280;63326;45.088;7.658;2023-11-18T10:05:22;99466.47;;;19.12;26.40
74798;BME280;63326;45.088;7.658;2023-11-18T10:07:50;99440.56;;;18.60;26.32
74798;BME280;63326;45.088;7.658;2023-11-18T10:10:18;99464.88;;;18.55;26.48
74798;BME280;63326;45.088;7.658;2023-11-18T10:12:48;99472.31;;;18.35;26.73
74798;BME280;63326;45.088;7.658;2023-11-18T10:15:25;99460.03;;;17.87;26.88
74798;BME280;63326;45.088;7.658;2023-11-18T10:17:53;99433.75;;;17.81;27.00
74798;BME280;63326;45.088;7.658;2023-11-18T10:23:08;99408.63;;;17.34;28.25
74798;BME280;63326;45.088;7.658;2023-11-18T10:25:48;99463.94;;;17.98;26.63
74798;BME280;63326;45.088;7.658;2023-11-18T10:28:34;99412.53;;;17.52;27.21
74798;BME280;63326;45.088;7.658;2023-11-18T10:31:04;99423.75;;;17.68;27.04
74798;BME280;63326;45.088;7.658;2023-11-18T10:33:36;99396.00;;;17.60;27.35
74798;BME280;63326;45.088;7.658;2023-11-18T10:36:05;99445.34;;;18.02;26.76
74798;BME280;63326;45.088;7.658;2023-11-18T10:38:40;99449.13;;;18.01;27.68
74798;BME280;63326;45.088;7.658;2023-11-18T10:41:19;99434.84;;;18.12;27.35
74798;BME280;63326;45.088;7.658;2023-11-18T10:43:46;99425.28;;;17.96;27.40
74798;BME280;63326;45.088;7.658;2023-11-18T10:46:17;99448.25;;;18.00;27.31
74798;BME280;63326;45.088;7.658;2023-11-18T10:51:18;99426.47;;;18.13;26.70
74798;BME280;63326;45.088;7.658;2023-11-18T10:53:53;99439.75;;;17.90;26.54
74798;BME280;63326;45.088;7.658;2023-11-18T10:56:21;99429.50;;;17.92;26.10
74798;BME280;63326;45.088;7.658;2023-11-18T10:58:56;99446.03;;;17.90;26.55
74798;BME280;63326;45.088;7.658;2023-11-18T11:01:29;99440.91;;;17.49;26.74
74798;BME280;63326;45.088;7.658;2023-11-18T11:03:57;99420.28;;;17.41;26.14
74798;BME280;63326;45.088;7.658;2023-11-18T11:06:28;99417.19;;;17.25;26.54
74798;BME280;63326;45.088;7.658;2023-11-18T11:08:57;99416.22;;;16.99;26.37
74798;BME280;63326;45.088;7.658;2023-11-18T11:11:39;99364.72;;;16.46;26.84
74798;BME280;63326;45.088;7.658;2023-11-18T11:14:06;99408.72;;;16.35;27.98
74798;BME280;63326;45.088;7.658;2023-11-18T11:16:41;99424.66;;;15.84;28.13
74798;BME280;63326;45.088;7.658;2023-11-18T11:22:00;99407.81;;;15.40;28.29
74798;BME280;63326;45.088;7.658;2023-11-18T11:24:40;99414.28;;;15.05;28.74
74798;BME280;63326;45.088;7.658;2023-11-18T11:27:25;99381.59;;;14.72;28.99
74798;BME280;63326;45.088;7.658;2023-11-18T11:30:10;99398.78;;;14.92;27.73
74798;BME280;63326;45.088;7.658;2023-11-18T11:32:51;99364.53;;;14.65;26.89
74798;BME280;63326;45.088;7.658;2023-11-18T11:35:23;99396.91;;;14.86;28.00
74798;BME280;63326;45.088;7.658;2023-11-18T11:37:52;99399.19;;;14.89;28.44
74798;BME280;63326;45.088;7.658;2023-11-18T11:40:21;99403.38;;;14.92;27.68
74798;BME280;63326;45.088;7.658;2023-11-18T11:42:52;99397.13;;;14.91;27.26
74798;BME280;63326;45.088;7.658;2023-11-18T11:45:25;99334.63;;;14.45;27.49
74798;BME280;63326;45.088;7.658;2023-11-18T11:47:59;99345.28;;;14.53;27.60
74798;BME280;63326;45.088;7.658;2023-11-18T11:54:13;99356.72;;;14.55;28.02
74798;BME280;63326;45.088;7.658;2023-11-18T11:56:46;99344.81;;;14.43;28.02
74798;BME280;63326;45.088;7.658;2023-11-18T11:59:17;99342.47;;;14.40;28.57
74798;BME280;63326;45.088;7.658;2023-11-18T12:01:48;99354.66;;;14.57;29.15
74798;BME280;63326;45.088;7.658;2023-11-18T12:04:19;99353.41;;;14.53;28.81
74798;BME280;63326;45.088;7.658;2023-11-18T12:06:55;99329.94;;;14.32;29.32
74798;BME280;63326;45.088;7.658;2023-11-18T12:09:38;99345.44;;;14.45;28.97
74798;BME280;63326;45.088;7.658;2023-11-18T12:12:05;99353.44;;;14.60;28.36
74798;BME280;63326;45.088;7.658;2023-11-18T12:14:52;99326.31;;;14.46;27.69
74798;BME280;63326;45.088;7.658;2023-11-18T12:17:23;99324.72;;;14.59;27.95
74798;BME280;63326;45.088;7.658;2023-11-18T12:19:55;99326.53;;;14.51;28.37
74798;BME280;63326;45.088;7.658;2023-11-18T12:23:05;99365.88;;;14.54;28.01
74798;BME280;63326;45.088;7.658;2023-11-18T12:25:41;99359.97;;;14.44;29.09
74798;BME280;63326;45.088;7.658;2023-11-18T12:28:09;99308.94;;;14.27;27.64
74798;BME280;63326;45.088;7.658;2023-11-18T12:30:43;99305.44;;;14.34;28.06
74798;BME280;63326;45.088;7.658;2023-11-18T12:33:19;99352.25;;;14.41;28.66
74798;BME280;63326;45.088;7.658;2023-11-18T12:40:56;99319.69;;;14.49;28.98
74798;BME280;63326;45.088;7.658;2023-11-18T12:43:47;99268.81;;;14.24;29.15
74798;BME280;63326;45.088;7.658;2023-11-18T12:49:04;99295.59;;;14.54;28.63
74798;BME280;63326;45.088;7.658;2023-11-18T12:51:32;99346.66;;;14.70;29.19
74798;BME280;63326;45.088;7.658;2023-11-18T12:54:01;99300.47;;;14.37;29.99
74798;BME280;63326;45.088;7.658;2023-11-18T12:56:29;99300.75;;;14.21;28.43
74798;BME280;63326;45.088;7.658;2023-11-18T12:58:57;99302.28;;;14.02;28.76
74798;BME280;63326;45.088;7.658;2023-11-18T13:01:23;99331.63;;;14.12;28.87
74798;BME280;63326;45.088;7.658;2023-11-18T13:03:52;99321.56;;;13.99;28.25
74798;BME280;63326;45.088;7.658;2023-11-18T13:06:20;99285.97;;;13.89;27.00
74798;BME280;63326;45.088;7.658;2023-11-18T13:08:50;99294.03;;;13.82;27.13
74798;BME280;63326;45.088;7.658;2023-11-18T13:11:17;99305.47;;;13.84;27.19
74798;BME280;63326;45.088;7.658;2023-11-18T13:13:45;99302.16;;;13.89;27.75
74798;BME280;63326;45.088;7.658;2023-11-18T13:16:12;99294.66;;;13.84;27.45
74798;BME280;63326;45.088;7.658;2023-11-18T13:18:45;99342.94;;;14.22;27.40
74798;BME280;63326;45.088;7.658;2023-11-18T13:21:16;99290.91;;;14.07;26.69
74798;BME280;63326;45.088;7.658;2023-11-18T13:23:47;99324.31;;;14.27;26.34
74798;BME280;63326;45.088;7.658;2023-11-18T13:26:15;99306.06;;;14.08;26.11
74798;BME280;63326;45.088;7.658;2023-11-18T13:28:42;99264.13;;;13.84;27.10
74798;BME280;63326;45.088;7.658;2023-11-18T13:31:12;99304.13;;;14.23;27.03
74798;BME280;63326;45.088;7.658;2023-11-18T13:33:43;99285.25;;;14.30;27.10
74798;BME280;63326;45.088;7.658;2023-11-18T13:36:11;99284.47;;;14.36;27.03